createdAt,value
2022-11-02T00:00:31.672Z,8.06
2022-11-02T00:01:31.731Z,8.00
2022-11-02T00:02:31.744Z,8.06
2022-11-02T00:03:31.644Z,7.93
2022-11-02T00:04:31.634Z,8.05
2022-11-02T00:05:31.641Z,7.95
2022-11-02T00:06:31.616Z,8.05
2022-11-02T00:07:31.603Z,8.05
2022-11-02T00:08:31.606Z,8.03
2022-11-02T00:09:31.596Z,8.05
2022-11-02T00:10:31.618Z,8.05
2022-11-02T00:11:31.577Z,8.05
2022-11-02T00:12:31.576Z,8.00
2022-11-02T00:13:31.564Z,8.12
2022-11-02T00:14:31.561Z,8.05
2022-11-02T00:15:31.577Z,8.01
2022-11-02T00:16:31.543Z,8.05
2022-11-02T00:17:31.557Z,8.05
2022-11-02T00:18:31.541Z,8.01
2022-11-02T00:19:31.527Z,8.13
2022-11-02T00:20:31.545Z,8.06
2022-11-02T00:21:31.507Z,8.10
2022-11-02T00:22:31.496Z,8.08
2022-11-02T00:23:31.490Z,8.12
2022-11-02T00:24:31.480Z,8.09
2022-11-02T00:25:31.496Z,8.10
2022-11-02T00:26:31.459Z,8.06
2022-11-02T00:27:31.454Z,7.97
2022-11-02T00:28:31.449Z,7.95
2022-11-02T00:29:33.997Z,7.91
2022-11-02T00:30:32.458Z,7.90
2022-11-02T00:31:31.415Z,7.87
2022-11-02T00:32:31.419Z,7.82
2022-11-02T00:33:31.410Z,7.88
2022-11-02T00:34:31.396Z,7.82
2022-11-02T00:35:31.420Z,7.80
2022-11-02T00:36:31.392Z,7.76
2022-11-02T00:38:31.366Z,7.70
2022-11-02T00:39:31.362Z,7.69
2022-11-02T00:40:31.383Z,7.61
2022-11-02T00:41:31.344Z,7.61
2022-11-02T00:42:31.335Z,7.63
2022-11-02T00:43:31.332Z,7.63
2022-11-02T00:44:31.316Z,7.61
2022-11-02T00:45:31.348Z,7.58
2022-11-02T00:46:31.304Z,7.58
2022-11-02T00:47:32.299Z,7.54
2022-11-02T00:48:31.285Z,7.54
2022-11-02T00:49:31.280Z,7.51
2022-11-02T00:50:31.269Z,7.48
2022-11-02T00:51:31.288Z,7.42
2022-11-02T00:52:31.253Z,7.43
2022-11-02T00:53:31.249Z,7.36
2022-11-02T00:54:31.239Z,7.32
2022-11-02T00:55:31.235Z,7.21
2022-11-02T00:56:31.249Z,7.28
2022-11-02T00:57:31.214Z,7.29
2022-11-02T00:58:31.210Z,7.28
2022-11-02T00:59:31.198Z,7.31
2022-11-02T01:00:31.195Z,7.35
2022-11-02T01:01:31.405Z,7.35
2022-11-02T01:02:31.279Z,7.38
2022-11-02T01:03:31.163Z,7.42
2022-11-02T01:04:31.159Z,7.45
2022-11-02T01:05:31.153Z,7.48
2022-11-02T01:06:31.175Z,7.43
2022-11-02T01:07:31.134Z,7.40
2022-11-02T01:08:31.134Z,7.42
2022-11-02T01:09:31.124Z,7.31
2022-11-02T01:10:31.116Z,7.31
2022-11-02T01:11:31.133Z,7.25
2022-11-02T01:12:31.098Z,7.24
2022-11-02T01:13:31.091Z,7.14
2022-11-02T01:14:31.080Z,7.13
2022-11-02T01:15:31.083Z,7.03
2022-11-02T01:16:31.091Z,7.13
2022-11-02T01:17:31.055Z,7.11
2022-11-02T01:18:31.044Z,7.07
2022-11-02T01:19:31.041Z,7.05
2022-11-02T01:20:31.033Z,7.05
2022-11-02T01:21:31.053Z,6.88
2022-11-02T01:22:31.018Z,6.95
2022-11-02T01:23:31.014Z,6.92
2022-11-02T01:24:31.005Z,6.92
2022-11-02T01:25:30.994Z,6.92
2022-11-02T01:26:31.021Z,6.92
2022-11-02T01:27:30.983Z,6.93
2022-11-02T01:28:30.983Z,6.85
2022-11-02T01:29:30.974Z,6.85
2022-11-02T01:30:30.997Z,6.82
2022-11-02T01:31:30.951Z,6.82
2022-11-02T01:32:30.952Z,6.72
2022-11-02T01:33:30.938Z,6.74
2022-11-02T01:34:30.926Z,6.85
2022-11-02T01:35:30.953Z,6.89
2022-11-02T01:36:30.909Z,6.81
2022-11-02T01:37:30.904Z,6.74
2022-11-02T01:38:30.888Z,6.63
2022-11-02T01:39:30.896Z,6.56
2022-11-02T01:40:30.877Z,6.46
2022-11-02T01:41:30.892Z,6.48
2022-11-02T01:42:30.869Z,6.44
2022-11-02T01:43:30.847Z,6.48
2022-11-02T01:44:30.844Z,6.41
2022-11-02T01:45:30.843Z,6.31
2022-11-02T01:46:30.859Z,6.39
2022-11-02T01:47:30.821Z,6.28
2022-11-02T01:48:30.825Z,6.26
2022-11-02T01:49:30.807Z,6.22
2022-11-02T01:50:30.815Z,6.24
2022-11-02T01:51:30.829Z,6.35
2022-11-02T01:52:30.791Z,6.28
2022-11-02T01:53:30.790Z,6.28
2022-11-02T01:54:30.778Z,6.33
2022-11-02T01:55:30.769Z,6.31
2022-11-02T01:56:30.784Z,6.27
2022-11-02T01:57:30.752Z,6.30
2022-11-02T01:58:30.738Z,6.27
2022-11-02T01:59:30.729Z,6.27
2022-11-02T02:00:30.756Z,6.31
2022-11-02T02:01:30.842Z,6.28
2022-11-02T02:02:30.866Z,6.36
2022-11-02T02:03:30.702Z,6.31
2022-11-02T02:04:30.691Z,6.31
2022-11-02T02:05:30.712Z,6.24
2022-11-02T02:06:30.677Z,6.33
2022-11-02T02:07:30.677Z,6.26
2022-11-02T02:08:30.664Z,6.20
2022-11-02T02:09:30.658Z,6.26
2022-11-02T02:10:30.672Z,6.33
2022-11-02T02:11:30.645Z,6.26
2022-11-02T02:12:30.637Z,6.14
2022-11-02T02:13:30.625Z,6.14
2022-11-02T02:14:30.615Z,6.26
2022-11-02T02:15:30.643Z,6.27
2022-11-02T02:16:33.653Z,6.31
2022-11-02T02:17:31.643Z,6.36
2022-11-02T02:18:30.587Z,6.31
2022-11-02T02:19:30.577Z,6.24
2022-11-02T02:20:30.602Z,6.17
2022-11-02T02:21:30.567Z,6.17
2022-11-02T02:22:30.558Z,6.17
2022-11-02T02:23:30.551Z,6.17
2022-11-02T02:24:30.544Z,6.09
2022-11-02T02:25:30.563Z,6.09
2022-11-02T02:26:30.534Z,6.05
2022-11-02T02:27:30.524Z,6.09
2022-11-02T02:28:30.515Z,6.16
2022-11-02T02:29:30.505Z,6.11
2022-11-02T02:30:30.500Z,6.24
2022-11-02T02:31:30.517Z,6.30
2022-11-02T02:32:30.478Z,6.46
2022-11-02T02:33:30.468Z,6.42
2022-11-02T02:34:30.469Z,6.56
2022-11-02T02:35:30.460Z,6.52
2022-11-02T02:36:30.476Z,6.56
2022-11-02T02:37:30.448Z,6.66
2022-11-02T02:38:30.437Z,6.74
2022-11-02T02:39:30.429Z,6.74
2022-11-02T02:40:30.442Z,6.74
2022-11-02T02:41:30.416Z,6.70
2022-11-02T02:42:30.410Z,6.82
2022-11-02T02:43:30.402Z,6.79
2022-11-02T02:44:30.393Z,6.88
2022-11-02T02:45:30.408Z,6.95
2022-11-02T02:46:32.419Z,6.92
2022-11-02T02:47:30.367Z,6.88
2022-11-02T02:48:30.356Z,6.88
2022-11-02T02:49:30.353Z,6.85
2022-11-02T02:50:30.377Z,6.93
2022-11-02T02:51:30.339Z,7.07
2022-11-02T02:52:30.321Z,7.00
2022-11-02T02:53:30.319Z,6.89
2022-11-02T02:54:30.317Z,6.97
2022-11-02T02:55:30.350Z,6.96
2022-11-02T02:56:30.324Z,7.05
2022-11-02T02:57:30.294Z,6.95
2022-11-02T02:58:30.287Z,6.92
2022-11-02T02:59:30.276Z,6.87
2022-11-02T03:00:30.275Z,6.95
2022-11-02T03:01:30.364Z,6.81
2022-11-02T03:02:30.365Z,6.69
2022-11-02T03:03:30.243Z,6.78
2022-11-02T03:04:30.238Z,6.69
2022-11-02T03:05:30.232Z,6.59
2022-11-02T03:06:30.250Z,6.66
2022-11-02T03:07:33.727Z,6.44
2022-11-02T03:08:30.216Z,6.49
2022-11-02T03:09:30.195Z,6.52
2022-11-02T03:10:30.194Z,6.49
2022-11-02T03:11:30.212Z,6.66
2022-11-02T03:12:30.181Z,6.56
2022-11-02T03:13:30.171Z,6.54
2022-11-02T03:14:30.218Z,6.70
2022-11-02T03:15:30.164Z,6.52
2022-11-02T03:16:30.176Z,6.62
2022-11-02T03:17:30.222Z,6.60
2022-11-02T03:18:30.139Z,6.63
2022-11-02T03:19:30.124Z,6.45
2022-11-02T03:20:30.121Z,6.64
2022-11-02T03:21:30.138Z,6.69
2022-11-02T03:22:30.104Z,6.56
2022-11-02T03:23:30.098Z,6.64
2022-11-02T03:24:30.095Z,6.63
2022-11-02T03:25:30.081Z,6.67
2022-11-02T03:26:30.102Z,6.54
2022-11-02T03:27:30.062Z,6.62
2022-11-02T03:28:30.059Z,6.51
2022-11-02T03:29:30.053Z,6.57
2022-11-02T03:30:30.045Z,6.57
2022-11-02T03:31:30.058Z,6.42
2022-11-02T03:32:30.032Z,6.33
2022-11-02T03:33:30.016Z,6.36
2022-11-02T03:34:30.009Z,6.36
2022-11-02T03:35:29.999Z,6.30
2022-11-02T03:36:30.033Z,6.27
2022-11-02T03:37:29.984Z,6.35
2022-11-02T03:38:29.983Z,6.38
2022-11-02T03:39:29.972Z,6.39
2022-11-02T03:40:29.972Z,6.31
2022-11-02T03:41:29.989Z,6.42
2022-11-02T03:42:29.946Z,6.28
2022-11-02T03:43:29.942Z,6.17
2022-11-02T03:44:29.933Z,6.20
2022-11-02T03:45:29.928Z,6.09
2022-11-02T03:46:29.941Z,6.22
2022-11-02T03:47:29.910Z,6.22
2022-11-02T03:48:29.905Z,6.24
2022-11-02T03:49:29.884Z,6.26
2022-11-02T03:50:29.889Z,6.27
2022-11-02T03:51:29.899Z,6.22
2022-11-02T03:52:29.878Z,6.08
2022-11-02T03:53:29.862Z,6.04
2022-11-02T03:54:29.856Z,6.12
2022-11-02T03:55:29.846Z,6.11
2022-11-02T03:56:29.858Z,6.02
2022-11-02T03:57:29.834Z,6.11
2022-11-02T03:58:29.826Z,6.08
2022-11-02T03:59:29.817Z,6.07
2022-11-02T04:00:29.811Z,6.07
2022-11-02T04:01:29.908Z,6.12
2022-11-02T04:02:29.961Z,6.08
2022-11-02T04:03:29.787Z,6.09
2022-11-02T04:04:29.773Z,6.19
2022-11-02T04:05:29.768Z,6.24
2022-11-02T04:06:29.788Z,6.28
2022-11-02T04:07:29.753Z,6.38
2022-11-02T04:08:29.740Z,6.35
2022-11-02T04:09:29.742Z,6.44
2022-11-02T04:10:29.734Z,6.46
2022-11-02T04:11:29.770Z,6.48
2022-11-02T04:12:29.714Z,6.59
2022-11-02T04:13:29.703Z,6.63
2022-11-02T04:14:29.698Z,6.72
2022-11-02T04:15:29.685Z,6.66
2022-11-02T04:16:29.724Z,6.72
2022-11-02T04:18:29.672Z,6.82
2022-11-02T04:19:29.660Z,6.88
2022-11-02T04:20:29.660Z,6.84
2022-11-02T04:21:29.677Z,6.92
2022-11-02T04:22:29.639Z,6.92
2022-11-02T04:23:29.637Z,6.96
2022-11-02T04:24:29.626Z,6.95
2022-11-02T04:25:29.616Z,7.05
2022-11-02T04:26:29.612Z,6.99
2022-11-02T04:27:29.622Z,6.96
2022-11-02T04:28:29.594Z,6.99
2022-11-02T04:29:29.591Z,7.11
2022-11-02T04:30:29.579Z,7.05
2022-11-02T04:31:29.576Z,7.05
2022-11-02T04:32:29.587Z,7.17
2022-11-02T04:33:29.555Z,7.10
2022-11-02T04:34:29.548Z,7.17
2022-11-02T04:35:29.544Z,7.17
2022-11-02T04:36:29.529Z,7.17
2022-11-02T04:38:29.519Z,7.36
2022-11-02T04:39:29.506Z,7.40
2022-11-02T04:40:29.506Z,7.35
2022-11-02T04:41:29.494Z,7.39
2022-11-02T04:42:29.506Z,7.45
2022-11-02T04:43:29.475Z,7.39
2022-11-02T04:44:29.469Z,7.42
2022-11-02T04:45:29.461Z,7.36
2022-11-02T04:46:29.458Z,7.39
2022-11-02T04:47:29.471Z,7.45
2022-11-02T04:48:29.436Z,7.50
2022-11-02T04:49:29.428Z,7.50
2022-11-02T04:50:29.422Z,7.47
2022-11-02T04:51:29.430Z,7.50
2022-11-02T04:52:29.404Z,7.54
2022-11-02T04:53:29.400Z,7.54
2022-11-02T04:54:29.387Z,7.61
2022-11-02T04:55:29.375Z,7.56
2022-11-02T04:56:29.396Z,7.54
2022-11-02T04:57:29.397Z,7.56
2022-11-02T04:58:29.351Z,7.54
2022-11-02T04:59:29.352Z,7.61
2022-11-02T05:00:29.348Z,7.56
2022-11-02T05:01:30.503Z,7.58
2022-11-02T05:02:29.390Z,7.61
2022-11-02T05:03:29.317Z,7.58
2022-11-02T05:04:29.311Z,7.58
2022-11-02T05:05:29.298Z,7.66
2022-11-02T05:06:29.310Z,7.70
2022-11-02T05:07:29.286Z,7.66
2022-11-02T05:08:29.274Z,7.66
2022-11-02T05:09:29.267Z,7.66
2022-11-02T05:10:29.262Z,7.66
2022-11-02T05:11:29.267Z,7.63
2022-11-02T05:12:29.511Z,7.61
2022-11-02T05:13:30.234Z,7.66
2022-11-02T05:14:29.233Z,7.79
2022-11-02T05:15:29.223Z,7.79
2022-11-02T05:16:29.229Z,7.75
2022-11-02T05:17:29.205Z,7.85
2022-11-02T05:18:29.201Z,7.76
2022-11-02T05:19:29.190Z,7.87
2022-11-02T05:20:29.173Z,7.77
2022-11-02T05:21:29.198Z,7.90
2022-11-02T05:22:29.161Z,7.91
2022-11-02T05:23:29.156Z,7.93
2022-11-02T05:24:29.150Z,7.98
2022-11-02T05:25:29.141Z,7.93
2022-11-02T05:26:29.156Z,7.98
2022-11-02T05:27:29.179Z,8.03
2022-11-02T05:28:29.118Z,7.97
2022-11-02T05:29:29.109Z,8.05
2022-11-02T05:30:29.097Z,8.03
2022-11-02T05:31:29.122Z,8.15
2022-11-02T05:32:29.082Z,8.06
2022-11-02T05:33:30.720Z,8.09
2022-11-02T05:34:30.067Z,8.08
2022-11-02T05:35:29.057Z,8.09
2022-11-02T05:36:29.083Z,8.09
2022-11-02T05:37:29.042Z,8.10
2022-11-02T05:38:29.143Z,8.09
2022-11-02T05:39:29.026Z,8.10
2022-11-02T05:40:29.022Z,8.01
2022-11-02T05:41:29.035Z,7.97
2022-11-02T05:42:29.002Z,7.94
2022-11-02T05:43:28.994Z,7.94
2022-11-02T05:44:28.992Z,7.90
2022-11-02T05:45:28.978Z,7.88
2022-11-02T05:46:28.996Z,7.82
2022-11-02T05:47:28.964Z,7.87
2022-11-02T05:48:28.959Z,7.82
2022-11-02T05:49:28.958Z,7.82
2022-11-02T05:50:28.969Z,7.79
2022-11-02T05:51:28.964Z,7.69
2022-11-02T05:52:28.940Z,7.70
2022-11-02T05:53:28.923Z,7.73
2022-11-02T05:54:28.919Z,7.70
2022-11-02T05:55:28.920Z,7.57
2022-11-02T05:56:28.922Z,7.61
2022-11-02T05:57:28.897Z,7.57
2022-11-02T05:58:28.895Z,7.58
2022-11-02T05:59:28.878Z,7.53
2022-11-02T06:00:28.869Z,7.42
2022-11-02T06:01:28.968Z,7.48
2022-11-02T06:02:28.860Z,7.32
2022-11-02T06:03:28.851Z,7.28
2022-11-02T06:04:28.845Z,7.28
2022-11-02T06:05:28.856Z,7.17
2022-11-02T06:06:28.851Z,7.17
2022-11-02T06:07:28.815Z,7.28
2022-11-02T06:08:28.810Z,7.25
2022-11-02T06:09:28.800Z,7.17
2022-11-02T06:10:28.791Z,7.20
2022-11-02T06:11:28.811Z,7.14
2022-11-02T06:12:28.781Z,7.23
2022-11-02T06:13:28.774Z,7.20
2022-11-02T06:14:28.764Z,7.14
2022-11-02T06:15:28.767Z,7.21
2022-11-02T06:16:28.778Z,7.17
2022-11-02T06:17:28.750Z,7.15
2022-11-02T06:18:28.739Z,7.11
2022-11-02T06:19:28.728Z,7.07
2022-11-02T06:20:28.725Z,7.10
2022-11-02T06:21:28.841Z,7.11
2022-11-02T06:22:28.706Z,7.06
2022-11-02T06:23:28.702Z,7.05
2022-11-02T06:24:28.685Z,7.14
2022-11-02T06:25:28.693Z,7.07
2022-11-02T06:26:28.711Z,7.06
2022-11-02T06:27:28.667Z,7.11
2022-11-02T06:28:28.657Z,7.14
2022-11-02T06:29:29.656Z,7.15
2022-11-02T06:30:28.646Z,7.21
2022-11-02T06:31:28.660Z,7.33
2022-11-02T06:32:28.633Z,7.48
2022-11-02T06:33:28.626Z,7.56
2022-11-02T06:34:28.622Z,7.73
2022-11-02T06:35:28.602Z,7.87
2022-11-02T06:36:28.631Z,8.01
2022-11-02T06:37:28.595Z,8.13
2022-11-02T06:38:28.610Z,8.30
2022-11-02T06:39:28.631Z,8.45
2022-11-02T06:40:28.568Z,8.45
2022-11-02T06:41:28.586Z,8.63
2022-11-02T06:42:28.556Z,8.70
2022-11-02T06:43:28.542Z,8.69
2022-11-02T06:44:28.533Z,8.81
2022-11-02T06:45:28.531Z,8.89
2022-11-02T06:46:28.823Z,8.87
2022-11-02T06:47:28.511Z,9.08
2022-11-02T06:48:34.216Z,9.03
2022-11-02T06:49:30.496Z,9.10
2022-11-02T06:50:28.492Z,9.11
2022-11-02T06:51:28.510Z,9.21
2022-11-02T06:52:28.474Z,9.22
2022-11-02T06:53:28.466Z,9.23
2022-11-02T06:54:28.457Z,9.54
2022-11-02T06:55:28.456Z,9.86
2022-11-02T06:56:28.470Z,10.31
2022-11-02T06:57:28.440Z,10.76
2022-11-02T06:58:28.428Z,11.04
2022-11-02T06:59:28.423Z,11.29
2022-11-02T07:00:28.666Z,11.50
2022-11-02T07:01:28.624Z,11.81
2022-11-02T07:02:28.446Z,12.02
2022-11-02T07:03:28.400Z,12.25
2022-11-02T07:04:28.379Z,12.49
2022-11-02T07:05:28.363Z,12.40
2022-11-02T07:06:28.385Z,12.43
2022-11-02T07:07:28.349Z,12.62
2022-11-02T07:08:28.338Z,12.97
2022-11-02T07:09:28.337Z,13.28
2022-11-02T07:10:28.420Z,13.35
2022-11-02T07:11:28.345Z,13.65
2022-11-02T07:12:28.310Z,13.72
2022-11-02T07:13:28.305Z,13.78
2022-11-02T07:14:28.292Z,13.97
2022-11-02T07:15:28.285Z,13.97
2022-11-02T07:16:28.309Z,13.50
2022-11-02T07:17:32.003Z,13.03
2022-11-02T07:18:29.263Z,13.03
2022-11-02T07:19:28.257Z,13.68
2022-11-02T07:20:28.324Z,14.05
2022-11-02T07:21:28.266Z,14.35
2022-11-02T07:22:28.234Z,14.55
2022-11-02T07:23:28.232Z,14.44
2022-11-02T07:24:28.253Z,14.36
2022-11-02T07:25:28.208Z,14.68
2022-11-02T07:26:28.228Z,14.85
2022-11-02T07:27:28.191Z,15.07
2022-11-02T07:28:28.182Z,15.33
2022-11-02T07:29:28.180Z,15.42
2022-11-02T07:30:28.227Z,15.72
2022-11-02T07:31:28.181Z,15.62
2022-11-02T07:32:28.152Z,15.57
2022-11-02T07:33:28.141Z,15.54
2022-11-02T07:34:28.140Z,15.54
2022-11-02T07:35:28.133Z,15.36
2022-11-02T07:36:28.153Z,15.29
2022-11-02T07:37:28.115Z,15.43
2022-11-02T07:38:28.106Z,15.57
2022-11-02T07:39:28.101Z,15.22
2022-11-02T07:40:28.195Z,15.57
2022-11-02T07:41:28.110Z,15.97
2022-11-02T07:42:28.079Z,16.35
2022-11-02T07:43:28.065Z,16.64
2022-11-02T07:44:28.062Z,16.76
2022-11-02T07:45:28.055Z,16.60
2022-11-02T07:46:28.042Z,16.66
2022-11-02T07:47:28.055Z,16.50
2022-11-02T07:48:28.027Z,16.42
2022-11-02T07:49:28.016Z,16.60
2022-11-02T07:50:28.016Z,16.76
2022-11-02T07:51:28.036Z,16.78
2022-11-02T07:52:27.996Z,16.87
2022-11-02T07:53:27.991Z,17.23
2022-11-02T07:54:27.982Z,17.39
2022-11-02T07:55:27.974Z,17.23
2022-11-02T07:56:27.966Z,17.23
2022-11-02T07:57:27.986Z,16.26
2022-11-02T07:58:27.969Z,15.70
2022-11-02T07:59:27.941Z,15.09
2022-11-02T08:00:27.931Z,15.09
2022-11-02T08:01:27.985Z,14.78
2022-11-02T08:02:28.029Z,15.19
2022-11-02T08:03:27.972Z,14.84
2022-11-02T08:04:27.903Z,14.55
2022-11-02T08:05:27.891Z,14.22
2022-11-02T08:06:27.884Z,13.89
2022-11-02T08:07:27.901Z,13.89
2022-11-02T08:08:27.871Z,13.67
2022-11-02T08:09:27.863Z,13.54
2022-11-02T08:10:27.851Z,13.41
2022-11-02T08:11:27.851Z,13.38
2022-11-02T08:12:27.957Z,13.41
2022-11-02T08:13:32.783Z,13.31
2022-11-02T08:14:28.825Z,13.22
2022-11-02T08:15:27.810Z,13.08
2022-11-02T08:16:27.806Z,13.03
2022-11-02T08:17:27.954Z,13.00
2022-11-02T08:18:27.788Z,12.95
2022-11-02T08:19:27.786Z,13.28
2022-11-02T08:20:27.775Z,13.97
2022-11-02T08:21:27.764Z,13.77
2022-11-02T08:22:27.957Z,13.60
2022-11-02T08:23:27.755Z,13.30
2022-11-02T08:24:27.745Z,13.20
2022-11-02T08:25:27.738Z,13.04
2022-11-02T08:26:27.730Z,13.03
2022-11-02T08:27:27.745Z,13.03
2022-11-02T08:28:27.712Z,13.03
2022-11-02T08:29:27.731Z,13.75
2022-11-02T08:30:27.695Z,14.41
2022-11-02T08:31:27.728Z,14.85
2022-11-02T08:32:27.708Z,15.24
2022-11-02T08:33:27.698Z,15.72
2022-11-02T08:34:27.665Z,15.88
2022-11-02T08:35:27.660Z,15.97
2022-11-02T08:36:27.647Z,15.92
2022-11-02T08:37:27.936Z,15.79
2022-11-02T08:38:27.634Z,15.49
2022-11-02T08:39:27.625Z,15.46
2022-11-02T08:40:27.618Z,15.25
2022-11-02T08:41:27.611Z,14.79
2022-11-02T08:42:27.623Z,14.44
2022-11-02T08:43:27.595Z,14.53
2022-11-02T08:44:27.581Z,14.37
2022-11-02T08:45:27.574Z,14.25
2022-11-02T08:46:27.566Z,14.66
2022-11-02T08:47:27.586Z,14.47
2022-11-02T08:48:27.554Z,14.89
2022-11-02T08:49:27.552Z,15.11
2022-11-02T08:50:27.531Z,15.36
2022-11-02T08:51:28.531Z,14.97
2022-11-02T08:52:27.544Z,14.81
2022-11-02T08:53:27.517Z,14.60
2022-11-02T08:54:27.507Z,14.51
2022-11-02T08:55:27.501Z,14.40
2022-11-02T08:56:27.493Z,14.32
2022-11-02T08:57:27.512Z,14.12
2022-11-02T08:58:27.473Z,14.07
2022-11-02T08:59:27.465Z,14.11
2022-11-02T09:00:27.463Z,14.14
2022-11-02T09:01:27.514Z,13.99
2022-11-02T09:02:27.506Z,14.08
2022-11-02T09:03:27.735Z,14.30
2022-11-02T09:04:27.429Z,14.10
2022-11-02T09:05:27.413Z,13.95
2022-11-02T09:06:27.409Z,13.81
2022-11-02T09:07:27.426Z,13.96
2022-11-02T09:08:27.669Z,13.75
2022-11-02T09:09:27.390Z,13.67
2022-11-02T09:10:27.381Z,13.59
2022-11-02T09:11:27.366Z,13.68
2022-11-02T09:12:27.389Z,13.71
2022-11-02T09:13:27.398Z,13.72
2022-11-02T09:14:27.384Z,13.74
2022-11-02T09:15:27.341Z,13.79
2022-11-02T09:16:27.329Z,13.97
2022-11-02T09:17:27.342Z,14.36
2022-11-02T09:18:27.329Z,14.37
2022-11-02T09:19:27.347Z,14.44
2022-11-02T09:20:27.303Z,14.33
2022-11-02T09:21:27.315Z,14.12
2022-11-02T09:22:27.307Z,13.81
2022-11-02T09:23:27.262Z,13.77
2022-11-02T09:24:28.267Z,13.67
2022-11-02T09:25:27.258Z,13.63
2022-11-02T09:26:27.248Z,13.79
2022-11-02T09:27:27.269Z,13.65
2022-11-02T09:28:27.244Z,13.72
2022-11-02T09:29:27.231Z,13.71
2022-11-02T09:30:27.216Z,13.75
2022-11-02T09:31:27.213Z,13.78
2022-11-02T09:32:27.230Z,13.86
2022-11-02T09:33:27.196Z,13.87
2022-11-02T09:34:27.191Z,13.92
2022-11-02T09:35:27.175Z,13.79
2022-11-02T09:36:27.169Z,13.97
2022-11-02T09:37:27.200Z,13.71
2022-11-02T09:38:27.157Z,13.78
2022-11-02T09:39:27.152Z,13.77
2022-11-02T09:40:27.140Z,13.75
2022-11-02T09:41:27.156Z,13.83
2022-11-02T09:42:27.149Z,13.85
2022-11-02T09:43:31.910Z,13.79
2022-11-02T09:44:29.109Z,13.90
2022-11-02T09:45:27.099Z,14.05
2022-11-02T09:46:27.094Z,13.93
2022-11-02T09:48:29.117Z,13.81
2022-11-02T09:49:28.064Z,13.87
2022-11-02T09:51:28.049Z,13.71
2022-11-02T09:52:27.041Z,13.70
2022-11-02T09:53:27.062Z,13.63
2022-11-02T09:54:27.029Z,13.68
2022-11-02T09:55:27.025Z,13.75
2022-11-02T09:56:27.010Z,13.75
2022-11-02T09:57:27.003Z,13.81
2022-11-02T09:58:27.022Z,13.85
2022-11-02T09:59:26.996Z,14.07
2022-11-02T10:00:26.984Z,13.99
2022-11-02T10:01:27.000Z,13.97
2022-11-02T10:02:27.006Z,13.97
2022-11-02T10:03:26.983Z,14.17
2022-11-02T10:04:26.953Z,14.30
2022-11-02T10:05:27.020Z,14.40
2022-11-02T10:06:26.932Z,14.45
2022-11-02T10:07:26.952Z,14.50
2022-11-02T10:08:26.922Z,14.30
2022-11-02T10:09:26.911Z,14.10
2022-11-02T10:10:26.905Z,13.95
2022-11-02T10:11:26.954Z,13.89
2022-11-02T10:12:27.952Z,13.85
2022-11-02T10:13:26.879Z,13.85
2022-11-02T10:14:26.875Z,13.90
2022-11-02T10:15:26.867Z,13.93
2022-11-02T10:16:26.856Z,13.99
2022-11-02T10:17:26.872Z,13.81
2022-11-02T10:18:26.846Z,13.83
2022-11-02T10:19:30.226Z,13.87
2022-11-02T10:20:26.832Z,14.10
2022-11-02T10:21:26.819Z,14.17
2022-11-02T10:22:26.836Z,14.26
2022-11-02T10:23:26.809Z,14.32
2022-11-02T10:24:26.795Z,14.41
2022-11-02T10:25:26.784Z,14.47
2022-11-02T10:26:26.781Z,14.51
2022-11-02T10:27:26.791Z,14.53
2022-11-02T10:28:26.835Z,14.55
2022-11-02T10:29:26.752Z,14.59
2022-11-02T10:30:26.746Z,14.55
2022-11-02T10:31:26.740Z,14.54
2022-11-02T10:32:26.766Z,14.60
2022-11-02T10:33:26.729Z,14.60
2022-11-02T10:34:26.711Z,14.68
2022-11-02T10:35:37.112Z,14.60
2022-11-02T10:36:28.698Z,14.65
2022-11-02T10:37:26.729Z,14.51
2022-11-02T10:38:26.683Z,14.62
2022-11-02T10:39:26.676Z,14.65
2022-11-02T10:40:26.664Z,14.78
2022-11-02T10:41:26.659Z,14.65
2022-11-02T10:42:26.648Z,14.62
2022-11-02T10:43:26.666Z,14.44
2022-11-02T10:44:26.633Z,14.44
2022-11-02T10:45:26.630Z,14.41
2022-11-02T10:46:26.620Z,14.37
2022-11-02T10:47:26.610Z,14.40
2022-11-02T10:48:26.632Z,14.47
2022-11-02T10:49:26.602Z,14.36
2022-11-02T10:50:26.592Z,14.37
2022-11-02T10:51:26.580Z,14.32
2022-11-02T10:52:26.575Z,14.29
2022-11-02T10:53:40.680Z,14.20
2022-11-02T10:54:33.168Z,14.29
2022-11-02T10:55:27.545Z,14.35
2022-11-02T10:56:26.536Z,14.47
2022-11-02T10:57:26.532Z,14.41
2022-11-02T10:58:26.550Z,14.51
2022-11-02T10:59:26.526Z,14.65
2022-11-02T11:00:26.579Z,14.81
2022-11-02T11:01:26.615Z,14.82
2022-11-02T11:02:26.498Z,14.86
2022-11-02T11:03:26.512Z,14.86
2022-11-02T11:04:26.502Z,14.96
2022-11-02T11:05:26.464Z,14.84
2022-11-02T11:06:27.463Z,14.97
2022-11-02T11:07:26.481Z,15.09
2022-11-02T11:08:26.446Z,15.02
2022-11-02T11:09:26.435Z,14.78
2022-11-02T11:10:26.433Z,14.65
2022-11-02T11:11:26.426Z,14.86
2022-11-02T11:12:26.441Z,14.88
2022-11-02T11:16:28.376Z,15.15
2022-11-02T11:19:43.626Z,15.09
2022-11-02T11:20:28.355Z,15.07
2022-11-02T11:21:26.346Z,15.11
2022-11-02T11:22:26.363Z,15.09
2022-11-02T11:23:26.349Z,15.28
2022-11-02T11:24:26.359Z,15.31
2022-11-02T11:25:28.281Z,15.28
2022-11-02T11:26:27.314Z,15.39
2022-11-02T11:27:26.327Z,15.31
2022-11-02T11:28:26.309Z,15.18
2022-11-02T11:29:26.296Z,15.02
2022-11-02T11:31:28.275Z,15.02
2022-11-02T11:32:30.261Z,14.99
2022-11-02T11:33:27.254Z,14.99
2022-11-02T11:34:26.263Z,14.89
2022-11-02T11:35:26.260Z,14.78
2022-11-02T11:37:27.256Z,14.79
2022-11-02T11:38:26.237Z,14.70
2022-11-02T11:39:26.210Z,14.86
2022-11-02T11:40:26.205Z,14.99
2022-11-02T11:41:26.195Z,14.97
2022-11-02T11:42:26.221Z,14.85
2022-11-02T11:43:26.184Z,15.00
2022-11-02T11:44:26.170Z,15.19
2022-11-02T11:45:26.170Z,15.43
2022-11-02T11:46:26.153Z,15.73
2022-11-02T11:47:26.159Z,15.77
2022-11-02T11:48:26.173Z,16.08
2022-11-02T11:49:41.589Z,16.32
2022-11-02T11:50:28.472Z,16.42
2022-11-02T11:51:26.458Z,16.57
2022-11-02T11:52:31.190Z,16.57
2022-11-02T11:53:28.127Z,16.58
2022-11-02T11:54:26.097Z,16.54
2022-11-02T11:55:26.087Z,16.58
2022-11-02T11:56:26.075Z,16.61
2022-11-02T11:57:26.138Z,16.43
2022-11-02T11:58:26.079Z,16.41
2022-11-02T11:59:26.057Z,16.31
2022-11-02T12:00:26.039Z,16.29
2022-11-02T12:01:26.081Z,16.16
2022-11-02T12:02:26.099Z,16.26
2022-11-02T12:03:26.108Z,16.26
2022-11-02T12:04:26.014Z,15.92
2022-11-02T12:05:26.004Z,15.73
2022-11-02T12:06:25.996Z,15.37
2022-11-02T12:07:25.995Z,15.28
2022-11-02T12:08:26.008Z,15.03
2022-11-02T12:09:25.981Z,14.96
2022-11-02T12:10:25.974Z,14.89
2022-11-02T12:11:25.959Z,14.82
2022-11-02T12:12:25.956Z,14.78
2022-11-02T12:13:25.977Z,14.79
2022-11-02T12:14:25.936Z,14.88
2022-11-02T12:15:25.934Z,14.96
2022-11-02T12:16:25.924Z,15.00
2022-11-02T12:17:25.920Z,14.91
2022-11-02T12:18:25.937Z,14.96
2022-11-02T12:19:27.377Z,15.11
2022-11-02T12:20:25.892Z,15.14
2022-11-02T12:21:25.893Z,15.14
2022-11-02T12:22:25.873Z,15.00
2022-11-02T12:23:25.892Z,14.99
2022-11-02T12:24:25.860Z,14.88
2022-11-02T12:25:25.855Z,14.92
2022-11-02T12:26:25.843Z,14.99
2022-11-02T12:27:25.838Z,14.96
2022-11-02T12:28:25.855Z,14.96
2022-11-02T12:29:25.823Z,14.99
2022-11-02T12:30:25.821Z,15.09
2022-11-02T12:31:25.802Z,15.22
2022-11-02T12:32:25.806Z,15.28
2022-11-02T12:33:25.823Z,15.35
2022-11-02T12:34:25.782Z,15.39
2022-11-02T12:35:30.172Z,15.37
2022-11-02T12:36:27.774Z,15.35
2022-11-02T12:37:39.980Z,15.37
2022-11-02T12:38:27.777Z,15.58
2022-11-02T12:39:25.759Z,15.47
2022-11-02T12:41:25.731Z,15.64
2022-11-02T12:42:26.346Z,15.64
2022-11-02T12:43:25.753Z,15.72
2022-11-02T12:44:25.713Z,15.70
2022-11-02T12:45:25.702Z,15.57
2022-11-02T12:46:25.703Z,15.57
2022-11-02T12:47:25.684Z,15.49
2022-11-02T12:48:25.715Z,15.35
2022-11-02T12:49:25.667Z,15.43
2022-11-02T12:50:25.653Z,15.40
2022-11-02T12:51:25.656Z,15.44
2022-11-02T12:52:25.644Z,15.52
2022-11-02T12:53:25.656Z,15.59
2022-11-02T12:54:25.633Z,15.79
2022-11-02T12:55:25.619Z,15.75
2022-11-02T12:56:25.617Z,15.67
2022-11-02T12:57:25.606Z,15.82
2022-11-02T12:58:25.633Z,15.95
2022-11-02T12:59:25.594Z,16.01
2022-11-02T13:00:25.587Z,16.00
2022-11-02T13:01:25.776Z,15.97
2022-11-02T13:02:25.589Z,15.95
2022-11-02T13:03:25.592Z,16.00
2022-11-02T13:04:29.289Z,16.00
2022-11-02T13:05:25.600Z,15.98
2022-11-02T13:06:25.534Z,16.02
2022-11-02T13:07:25.522Z,16.10
2022-11-02T13:08:25.542Z,16.21
2022-11-02T13:09:26.229Z,16.24
2022-11-02T13:10:25.508Z,16.33
2022-11-02T13:11:25.494Z,16.36
2022-11-02T13:12:25.483Z,16.39
2022-11-02T13:13:25.497Z,16.36
2022-11-02T13:14:25.469Z,16.29
2022-11-02T13:15:25.457Z,16.21
2022-11-02T13:16:25.466Z,16.04
2022-11-02T13:17:25.441Z,15.95
2022-11-02T13:18:25.468Z,15.86
2022-11-02T13:19:25.428Z,15.90